createdAt,value
2022-10-28T00:01:14.773Z,99043.56
2022-10-28T00:06:20.979Z,99045.25
2022-10-28T00:11:26.115Z,99035.25
2022-10-28T00:16:31.241Z,99026.50
2022-10-28T00:21:37.719Z,99026.50
2022-10-28T00:26:42.583Z,99018.63
2022-10-28T00:31:46.994Z,99000.72
2022-10-28T00:36:51.104Z,99007.66
2022-10-28T00:41:55.857Z,99007.38
2022-10-28T00:46:58.781Z,99006.50
2022-10-28T00:52:07.131Z,99000.19
2022-10-28T00:57:14.171Z,98989.91
2022-10-28T01:02:18.323Z,98982.19
2022-10-28T01:07:23.270Z,98980.38
2022-10-28T01:12:36.284Z,98989.44
2022-10-28T01:17:56.276Z,98978.88
2022-10-28T01:23:09.159Z,98969.56
2022-10-28T01:28:41.915Z,98982.56
2022-10-28T01:33:53.556Z,99002.91
2022-10-28T01:39:02.198Z,98998.97
2022-10-28T01:44:10.683Z,98990.75
2022-10-28T01:49:20.638Z,98976.38
2022-10-28T01:54:28.167Z,98979.75
2022-10-28T01:59:32.664Z,98971.72
2022-10-28T02:04:36.721Z,98958.06
2022-10-28T02:09:57.620Z,98956.09
2022-10-28T02:15:20.530Z,98942.41
2022-10-28T02:20:34.783Z,98937.19
2022-10-28T02:25:44.134Z,98938.03
2022-10-28T02:30:51.766Z,98936.22
2022-10-28T02:35:59.518Z,98938.88
2022-10-28T02:41:07.940Z,98938.59
2022-10-28T02:46:13.486Z,98941.28
2022-10-28T02:51:21.197Z,98933.13
2022-10-28T02:56:24.271Z,98909.81
2022-10-28T03:01:27.225Z,98905.31
2022-10-28T03:06:31.691Z,98908.84
2022-10-28T03:11:34.437Z,98900.78
2022-10-28T03:16:37.154Z,98909.69
2022-10-28T03:21:41.212Z,98912.38
2022-10-28T03:26:44.065Z,98909.69
2022-10-28T03:31:46.780Z,98909.69
2022-10-28T03:36:50.890Z,98916.59
2022-10-28T03:41:53.583Z,98923.34
2022-10-28T03:46:56.291Z,98928.72
2022-10-28T03:52:00.451Z,98933.25
2022-10-28T03:57:03.152Z,98934.09
2022-10-28T04:02:06.072Z,98915.47
2022-10-28T04:07:10.427Z,98915.47
2022-10-28T04:12:13.227Z,98911.81
2022-10-28T04:17:16.772Z,98902.34
2022-10-28T04:22:21.830Z,98901.38
2022-10-28T04:27:25.475Z,98891.75
2022-10-28T04:32:28.415Z,98888.66
2022-10-28T04:37:32.877Z,98889.22
2022-10-28T04:42:35.834Z,98880.50
2022-10-28T04:47:39.445Z,98872.84
2022-10-28T04:52:43.717Z,98873.44
2022-10-28T04:57:53.651Z,98864.25
2022-10-28T05:02:56.821Z,98867.50
2022-10-28T05:08:01.831Z,98864.53
2022-10-28T05:13:04.538Z,98868.63
2022-10-28T05:18:07.309Z,98863.38
2022-10-28T05:23:11.822Z,98864.50
2022-10-28T05:28:14.645Z,98858.69
2022-10-28T05:33:17.464Z,98854.34
2022-10-28T05:38:21.891Z,98858.97
2022-10-28T05:43:27.905Z,98853.84
2022-10-28T05:48:31.913Z,98866.50
2022-10-28T05:53:36.894Z,98873.00
2022-10-28T05:58:39.739Z,98878.91
2022-10-28T06:03:42.693Z,98872.53
2022-10-28T06:08:46.777Z,98891.09
2022-10-28T06:13:48.001Z,98890.25
2022-10-28T06:18:51.387Z,98889.25
2022-10-28T06:23:55.509Z,98891.38
2022-10-28T06:28:58.256Z,98906.63
2022-10-28T06:34:01.051Z,98896.38
2022-10-28T06:39:06.120Z,98909.47
2022-10-28T06:44:09.455Z,98904.41
2022-10-28T06:49:13.794Z,98901.03
2022-10-28T06:54:19.007Z,98911.91
2022-10-28T06:59:21.718Z,98925.31
2022-10-28T07:04:24.976Z,98924.47
2022-10-28T07:09:30.008Z,98905.72
2022-10-28T07:14:35.003Z,98907.44
2022-10-28T07:19:40.919Z,98910.66
2022-10-28T07:24:45.078Z,98915.59
2022-10-28T07:29:47.840Z,98929.28
2022-10-28T07:34:50.657Z,98922.50
2022-10-28T07:39:54.842Z,98934.06
2022-10-28T07:44:57.558Z,98928.09
2022-10-28T07:50:00.493Z,98939.13
2022-10-28T07:55:05.863Z,98939.09
2022-10-28T08:00:09.361Z,98942.72
2022-10-28T08:05:14.741Z,98940.69
2022-10-28T08:15:52.881Z,98938.66
2022-10-28T08:26:48.950Z,98937.78
2022-10-28T08:31:51.700Z,98948.00
2022-10-28T08:36:54.406Z,98939.88
2022-10-28T08:42:08.780Z,98939.06
2022-10-28T08:47:22.713Z,98940.63
2022-10-28T08:52:31.775Z,98945.31
2022-10-28T08:57:40.924Z,98943.16
2022-10-28T09:02:52.456Z,98935.56
2022-10-28T09:07:57.453Z,98940.56
2022-10-28T09:13:09.586Z,98938.84
2022-10-28T09:18:19.107Z,98939.53
2022-10-28T09:23:25.094Z,98933.22
2022-10-28T09:28:43.300Z,98928.44
2022-10-28T09:33:59.721Z,98923.63
2022-10-28T09:39:06.100Z,98921.41
2022-10-28T09:44:18.831Z,98927.56
2022-10-28T09:49:26.394Z,98937.22
2022-10-28T09:54:34.947Z,98937.25
2022-10-28T09:59:39.921Z,98936.22
2022-10-28T10:04:43.841Z,98930.88
2022-10-28T10:09:46.807Z,98945.47
2022-10-28T10:14:53.728Z,98946.22
2022-10-28T10:20:04.556Z,98943.31
2022-10-28T10:25:25.257Z,98935.19
2022-10-28T10:30:32.491Z,98931.84
2022-10-28T10:35:37.921Z,98939.34
2022-10-28T10:40:49.661Z,98929.25
2022-10-28T10:46:03.749Z,98928.50
2022-10-28T10:51:27.190Z,98912.59
2022-10-28T10:56:31.866Z,98902.41
2022-10-28T11:01:40.826Z,98905.75
2022-10-28T11:06:49.481Z,98903.22
2022-10-28T11:11:55.885Z,98901.63
2022-10-28T11:17:02.171Z,98893.59
2022-10-28T11:22:28.208Z,98881.97
2022-10-28T11:27:45.550Z,98885.81
2022-10-28T11:33:28.303Z,98875.56
2022-10-28T11:39:19.773Z,98879.03
2022-10-28T11:50:05.353Z,98866.16
2022-10-28T11:55:19.410Z,98866.47
2022-10-28T12:00:35.254Z,98851.44
2022-10-28T12:05:46.441Z,98851.59
2022-10-28T12:11:03.827Z,98848.69
2022-10-28T12:16:14.979Z,98830.78
2022-10-28T12:21:26.459Z,98829.34
2022-10-28T12:26:39.038Z,98825.31
2022-10-28T12:31:47.231Z,98821.59
2022-10-28T12:36:55.395Z,98823.72
2022-10-28T12:42:03.752Z,98833.19
2022-10-28T12:47:17.338Z,98825.84
2022-10-28T12:52:31.814Z,98828.03
2022-10-28T12:57:36.506Z,98824.50
2022-10-28T13:02:50.446Z,98817.94
2022-10-28T13:08:14.532Z,98830.94
2022-10-28T13:13:38.352Z,98834.31
2022-10-28T13:19:19.945Z,98827.53
2022-10-28T13:24:29.971Z,98821.63
2022-10-28T13:29:35.905Z,98818.91
2022-10-28T13:34:41.000Z,98824.69
2022-10-28T13:39:46.657Z,98812.13
2022-10-28T13:44:50.822Z,98811.69
2022-10-28T13:50:21.441Z,98820.78
2022-10-28T13:55:28.183Z,98806.72
2022-10-28T14:00:39.010Z,98815.88
2022-10-28T14:05:54.346Z,98810.97
2022-10-28T14:11:04.382Z,98807.78
2022-10-28T14:16:23.901Z,98803.38
2022-10-28T14:21:39.477Z,98809.34
2022-10-28T14:27:26.861Z,98824.25
2022-10-28T14:32:43.893Z,98829.81
2022-10-28T14:38:31.738Z,98836.19
2022-10-28T14:43:55.088Z,98841.97
2022-10-28T14:49:01.581Z,98841.25
2022-10-28T14:54:10.286Z,98851.66
2022-10-28T14:59:26.336Z,98846.16
2022-10-28T15:04:32.300Z,98848.25
2022-10-28T15:09:36.134Z,98855.47
2022-10-28T15:14:41.445Z,98857.84
2022-10-28T15:19:46.973Z,98845.47
2022-10-28T15:25:00.842Z,98848.00
2022-10-28T15:30:04.980Z,98850.19
2022-10-28T15:35:43.447Z,98834.69
2022-10-28T15:40:46.293Z,98840.91
2022-10-28T15:45:49.101Z,98842.13
2022-10-28T15:51:15.237Z,98834.25
2022-10-28T15:56:25.549Z,98846.38
2022-10-28T16:01:31.477Z,98864.28
2022-10-28T16:06:37.971Z,98859.84
2022-10-28T16:11:44.995Z,98855.00
2022-10-28T16:16:48.476Z,98859.53
2022-10-28T16:21:52.728Z,98865.72
2022-10-28T16:26:55.450Z,98869.91
2022-10-28T16:31:58.284Z,98877.28
2022-10-28T16:37:02.442Z,98881.84
2022-10-28T16:42:05.246Z,98892.53
2022-10-28T16:47:12.092Z,98904.91
2022-10-28T16:52:19.999Z,98916.28
2022-10-28T17:02:29.273Z,98917.22
2022-10-28T17:07:33.644Z,98918.22
2022-10-28T17:12:36.389Z,98938.75
2022-10-28T17:17:39.225Z,98920.69
2022-10-28T17:22:43.368Z,98922.03
2022-10-28T17:27:48.484Z,98936.09
2022-10-28T17:32:53.095Z,98939.22
2022-10-28T17:37:57.949Z,98942.88
2022-10-28T17:43:00.953Z,98942.28
2022-10-28T17:48:04.865Z,98944.38
2022-10-28T17:53:08.929Z,98943.47
2022-10-28T17:58:11.912Z,98946.75
2022-10-28T18:03:14.677Z,98947.00
2022-10-28T18:08:20.658Z,98943.84
2022-10-28T18:13:27.561Z,98946.25
2022-10-28T18:18:30.308Z,98946.31
2022-10-28T18:23:34.470Z,98941.88
2022-10-28T18:28:38.706Z,98940.25
2022-10-28T18:33:42.099Z,98952.94
2022-10-28T18:38:46.335Z,98947.63
2022-10-28T18:43:49.166Z,98948.69
2022-10-28T18:48:53.218Z,98959.91
2022-10-28T18:53:57.468Z,98956.75
2022-10-28T18:59:03.596Z,98954.38
2022-10-28T19:04:06.790Z,98963.28
2022-10-28T19:09:10.885Z,98968.81
2022-10-28T19:14:13.695Z,98962.44
2022-10-28T19:19:16.381Z,98963.03
2022-10-28T19:24:21.014Z,98974.50
2022-10-28T19:29:23.849Z,98972.03
2022-10-28T19:34:27.204Z,98973.63
2022-10-28T19:39:31.303Z,98985.19
2022-10-28T19:44:34.228Z,98977.16
2022-10-28T19:49:40.641Z,98981.91
2022-10-28T19:54:47.654Z,98980.34
2022-10-28T19:59:50.455Z,98984.44
2022-10-28T20:04:57.086Z,98994.97
2022-10-28T20:10:01.295Z,98993.53
2022-10-28T20:15:04.550Z,98999.47
2022-10-28T20:20:08.513Z,99000.34
2022-10-28T20:25:12.660Z,99005.09
2022-10-28T20:30:15.469Z,99005.66
2022-10-28T20:35:18.952Z,99013.69
2022-10-28T20:40:23.075Z,99024.91
2022-10-28T20:50:54.791Z,99039.34
2022-10-28T20:55:59.646Z,99043.91
2022-10-28T21:01:03.995Z,99042.06
2022-10-28T21:06:07.462Z,99053.84
2022-10-28T21:11:13.625Z,99052.28
2022-10-28T21:16:16.745Z,99047.06
2022-10-28T21:21:20.689Z,99052.56
2022-10-28T21:26:26.854Z,99055.38
2022-10-28T21:31:29.961Z,99047.47
2022-10-28T21:36:32.765Z,99052.97
2022-10-28T21:41:36.936Z,99057.78
2022-10-28T21:46:39.696Z,99055.94
2022-10-28T21:51:42.436Z,99056.94
2022-10-28T21:56:46.537Z,99052.97
2022-10-28T22:01:49.358Z,99059.03
2022-10-28T22:06:52.544Z,99064.81
2022-10-28T22:11:56.722Z,99060.44
2022-10-28T22:16:59.448Z,99051.91
2022-10-28T22:22:02.545Z,99051.50
2022-10-28T22:27:06.690Z,99048.84
2022-10-28T22:32:09.479Z,99048.31
2022-10-28T22:37:12.255Z,99050.59
2022-10-28T22:42:16.338Z,99049.47
2022-10-28T22:47:19.181Z,99051.88
2022-10-28T22:52:21.873Z,99053.84
2022-10-28T22:57:26.256Z,99047.28
2022-10-28T23:02:29.133Z,99058.88
2022-10-28T23:07:32.216Z,99057.72
2022-10-28T23:12:36.409Z,99050.66
2022-10-28T23:17:39.458Z,99043.84
2022-10-28T23:22:42.158Z,99052.16
2022-10-28T23:27:46.283Z,99063.41
2022-10-28T23:32:49.046Z,99054.66
2022-10-28T23:37:51.811Z,99056.88
2022-10-28T23:42:56.296Z,99064.75
2022-10-28T23:47:59.305Z,99065.81
2022-10-28T23:53:02.014Z,99079.75
2022-10-28T23:58:06.173Z,99076.78
